Time;durP1;ratioP1;P1;durP2;ratioP2;P2;SDS_P1;SDS_P2;PMS_P1;PMS_P2;Temp;Humidity;BMP_temperature;BMP_pressure;BME280_temperature;BME280_humidity;BME280_pressure;Samples;Min_cycle;Max_cycle;Signal;HPM_P1;HPM_P2
2023/08/18 00:00:01;;;;;;;7.32;3.72;;;22.60;99.90;;;;;;5047465;28;20060;-78
2023/08/18 00:02:28;;;;;;;8.70;4.63;;;22.60;99.90;;;;;;5050124;28;20428;-77
2023/08/18 00:04:55;;;;;;;10.02;4.28;;;22.60;99.90;;;;;;5030906;28;20052;-78
2023/08/18 00:07:21;;;;;;;7.43;3.65;;;22.60;99.90;;;;;;5043304;28;20114;-78
2023/08/18 00:09:48;;;;;;;5.75;3.55;;;22.60;99.90;;;;;;5048695;28;20045;-75
2023/08/18 00:12:15;;;;;;;11.10;4.20;;;22.50;99.90;;;;;;5042345;28;20050;-78
2023/08/18 00:14:41;;;;;;;8.02;2.92;;;22.50;99.90;;;;;;5030800;28;20049;-78
2023/08/18 00:17:09;;;;;;;4.72;2.90;;;22.50;99.90;;;;;;5049134;28;20087;-78
2023/08/18 00:19:36;;;;;;;11.18;3.50;;;22.40;99.90;;;;;;5045302;28;20045;-78
2023/08/18 00:22:03;;;;;;;9.13;3.47;;;22.40;99.90;;;;;;5042367;28;20417;-78
2023/08/18 00:24:30;;;;;;;7.30;3.30;;;22.40;99.90;;;;;;5047394;28;20347;-78
2023/08/18 00:26:56;;;;;;;7.05;3.03;;;22.40;99.90;;;;;;5044909;28;20107;-78
2023/08/18 00:29:23;;;;;;;7.13;2.95;;;22.40;99.90;;;;;;5042531;28;20041;-77
2023/08/18 00:31:50;;;;;;;8.02;3.53;;;22.40;99.90;;;;;;5046810;28;20077;-78
2023/08/18 00:34:16;;;;;;;7.18;3.50;;;22.30;99.90;;;;;;5045532;28;20099;-77
2023/08/18 00:36:43;;;;;;;5.85;3.28;;;22.30;99.90;;;;;;5040755;28;20574;-78
2023/08/18 00:39:10;;;;;;;9.93;4.00;;;22.30;99.90;;;;;;5046024;28;20135;-78
2023/08/18 00:41:37;;;;;;;6.78;3.25;;;22.30;99.90;;;;;;5043319;28;20050;-78
2023/08/18 00:44:03;;;;;;;8.35;3.00;;;22.30;99.90;;;;;;5044309;28;20045;-78
2023/08/18 00:46:31;;;;;;;7.20;3.15;;;22.30;99.90;;;;;;5046319;28;20044;-77
2023/08/18 00:49:00;;;;;;;6.53;2.97;;;22.20;99.90;;;;;;5050732;28;20145;-78
2023/08/18 00:51:27;;;;;;;4.13;2.88;;;22.20;99.90;;;;;;5040017;28;20099;-77
2023/08/18 00:53:54;;;;;;;12.60;3.95;;;22.20;99.90;;;;;;5044462;28;20036;-77
2023/08/18 00:56:22;;;;;;;6.05;3.50;;;22.20;99.90;;;;;;5045899;28;20463;-78
2023/08/18 00:58:48;;;;;;;9.20;3.42;;;22.20;99.90;;;;;;5042003;28;20045;-76
2023/08/18 01:01:16;;;;;;;5.82;3.00;;;22.20;99.90;;;;;;5042922;28;20071;-78
2023/08/18 01:03:43;;;;;;;7.30;3.25;;;22.20;99.90;;;;;;5050042;28;20132;-78
2023/08/18 01:06:10;;;;;;;8.30;3.70;;;22.10;99.90;;;;;;5038545;28;20405;-77
2023/08/18 01:08:37;;;;;;;9.85;4.00;;;22.10;99.90;;;;;;5042237;28;20042;-78
2023/08/18 01:11:22;;;;;;;12.25;3.78;;;22.10;99.90;;;;;;5048917;28;20041;-76
2023/08/18 01:14:02;;;;;;;10.55;4.22;;;22.10;99.90;;;;;;5044453;28;20087;-74
2023/08/18 01:16:29;;;;;;;5.20;3.75;;;22.10;99.90;;;;;;5043007;28;20049;-75
2023/08/18 01:18:56;;;;;;;6.40;3.42;;;22.10;99.90;;;;;;5049455;28;20049;-75
2023/08/18 01:21:24;;;;;;;12.90;3.63;;;22.10;99.90;;;;;;5033355;28;20045;-75
2023/08/18 01:23:51;;;;;;;10.77;4.07;;;22.00;99.90;;;;;;5040797;28;20052;-75
2023/08/18 01:26:17;;;;;;;8.00;3.65;;;22.00;99.90;;;;;;5045554;28;20090;-75
2023/08/18 01:28:44;;;;;;;10.15;3.83;;;22.00;99.90;;;;;;5043259;28;20072;-79
2023/08/18 01:31:15;;;;;;;6.78;3.70;;;22.00;99.90;;;;;;5044057;28;20076;-77
2023/08/18 01:33:53;;;;;;;5.55;3.40;;;21.90;99.90;;;;;;5048968;28;20139;-77
2023/08/18 01:36:21;;;;;;;10.52;3.83;;;21.90;99.90;;;;;;5033648;28;20069;-77
2023/08/18 01:38:51;;;;;;;7.43;3.47;;;21.90;99.90;;;;;;5041954;28;20106;-76
2023/08/18 01:41:24;;;;;;;6.60;3.53;;;21.80;99.90;;;;;;5061079;28;20049;-75
2023/08/18 01:43:51;;;;;;;7.47;3.47;;;21.80;99.90;;;;;;5042112;28;20090;-76
2023/08/18 01:46:18;;;;;;;6.63;3.35;;;21.80;99.90;;;;;;5041861;28;20041;-78
2023/08/18 01:48:45;;;;;;;10.07;4.30;;;21.80;99.90;;;;;;5048271;28;20037;-76
2023/08/18 01:51:11;;;;;;;10.50;4.05;;;21.80;99.90;;;;;;5036743;28;20501;-75
2023/08/18 01:53:38;;;;;;;6.35;3.78;;;21.70;99.90;;;;;;5041892;28;20037;-75
2023/08/18 01:56:05;;;;;;;6.03;3.60;;;21.70;99.90;;;;;;5049113;28;20056;-76
2023/08/18 01:58:31;;;;;;;10.43;4.35;;;21.70;99.90;;;;;;5041421;28;20068;-75
2023/08/18 02:00:58;;;;;;;6.78;3.85;;;21.70;99.90;;;;;;5041325;28;20489;-75
2023/08/18 02:03:26;;;;;;;9.02;3.95;;;21.70;99.90;;;;;;5046859;28;20148;-75
2023/08/18 02:05:56;;;;;;;8.20;3.83;;;21.70;99.90;;;;;;5037541;28;20046;-76
2023/08/18 02:08:24;;;;;;;6.20;4.22;;;21.70;99.90;;;;;;5039856;28;20044;-76
2023/08/18 02:10:51;;;;;;;8.35;4.30;;;21.60;99.90;;;;;;5044333;28;20489;-75
2023/08/18 02:13:17;;;;;;;8.10;4.40;;;21.60;99.90;;;;;;5044262;28;20045;-76
2023/08/18 02:15:46;;;;;;;11.45;5.65;;;21.60;99.90;;;;;;5040745;28;20049;-76
2023/08/18 02:18:12;;;;;;;7.40;4.05;;;21.60;99.90;;;;;;5045934;28;20099;-75
2023/08/18 02:20:40;;;;;;;7.40;4.35;;;21.60;99.90;;;;;;5037680;28;20468;-75
2023/08/18 02:23:07;;;;;;;9.77;4.93;;;21.50;99.90;;;;;;5040798;28;20428;-77
2023/08/18 02:25:33;;;;;;;8.82;4.45;;;21.60;99.90;;;;;;5046255;28;20041;-78
2023/08/18 02:28:00;;;;;;;7.38;4.53;;;21.50;99.90;;;;;;5045226;28;20056;-77
2023/08/18 02:30:27;;;;;;;8.63;4.47;;;21.50;99.90;;;;;;5036748;28;20042;-77
2023/08/18 02:32:54;;;;;;;7.90;4.63;;;21.50;99.90;;;;;;5025327;28;20560;-74
2023/08/18 02:35:20;;;;;;;5.95;4.40;;;21.50;99.90;;;;;;5046612;28;20049;-77
2023/08/18 02:37:47;;;;;;;11.50;5.20;;;21.50;99.90;;;;;;5040102;28;20046;-75
2023/08/18 02:40:14;;;;;;;7.28;4.63;;;21.50;99.90;;;;;;5044599;28;20043;-75
2023/08/18 02:42:41;;;;;;;6.63;4.32;;;21.40;99.90;;;;;;5044009;28;20413;-76
2023/08/18 02:45:08;;;;;;;8.48;4.95;;;21.40;99.90;;;;;;5039021;28;20094;-78
2023/08/18 02:47:38;;;;;;;9.73;4.53;;;21.40;99.90;;;;;;5043100;28;20040;-77
2023/08/18 02:50:06;;;;;;;9.10;4.60;;;21.40;99.90;;;;;;5044990;28;20415;-74
2023/08/18 02:52:33;;;;;;;7.45;4.53;;;21.40;99.90;;;;;;5041798;28;20444;-77
2023/08/18 02:55:00;;;;;;;10.80;4.63;;;21.40;99.90;;;;;;5045134;28;20493;-78
2023/08/18 02:57:27;;;;;;;6.13;4.35;;;21.30;99.90;;;;;;5045410;28;20134;-77
2023/08/18 02:59:54;;;;;;;9.68;4.22;;;21.30;99.90;;;;;;5037636;28;20528;-76
2023/08/18 03:02:21;;;;;;;6.53;4.13;;;21.30;99.90;;;;;;5042323;28;20045;-78
2023/08/18 03:04:47;;;;;;;6.55;4.10;;;21.30;99.90;;;;;;5046796;28;20084;-78
2023/08/18 03:07:14;;;;;;;6.75;4.50;;;21.30;99.90;;;;;;5040236;28;20052;-77
2023/08/18 03:09:42;;;;;;;6.70;4.72;;;21.30;99.90;;;;;;5043144;28;20045;-76
2023/08/18 03:12:09;;;;;;;6.68;4.07;;;21.30;99.90;;;;;;5048029;28;20493;-75
2023/08/18 03:14:35;;;;;;;7.03;3.95;;;21.30;99.90;;;;;;5036310;28;20049;-78
2023/08/18 03:17:02;;;;;;;8.75;4.25;;;21.30;99.90;;;;;;5040249;28;20106;-78
2023/08/18 03:19:29;;;;;;;9.20;4.90;;;21.30;99.90;;;;;;5047764;28;20044;-77
2023/08/18 03:21:56;;;;;;;7.65;4.63;;;21.20;99.90;;;;;;5033248;28;20053;-79
2023/08/18 03:24:24;;;;;;;9.32;5.05;;;21.20;99.90;;;;;;5026468;28;20420;-77
2023/08/18 03:26:51;;;;;;;8.20;4.80;;;21.20;99.90;;;;;;5047712;28;20095;-78
2023/08/18 03:29:18;;;;;;;6.63;4.82;;;21.20;99.90;;;;;;5040983;28;20501;-76
2023/08/18 03:31:44;;;;;;;10.52;5.85;;;21.20;99.90;;;;;;5044767;28;20069;-78
2023/08/18 03:34:11;;;;;;;8.60;5.00;;;21.20;99.90;;;;;;5046608;28;20045;-80
2023/08/18 03:36:38;;;;;;;6.80;4.80;;;21.20;99.90;;;;;;5047190;28;20053;-76
2023/08/18 03:39:05;;;;;;;7.22;4.75;;;21.20;99.90;;;;;;5046356;28;20107;-77
2023/08/18 03:41:31;;;;;;;11.23;4.75;;;21.20;99.90;;;;;;5047495;28;20496;-75
2023/08/18 03:43:58;;;;;;;5.97;4.30;;;21.20;99.90;;;;;;5042292;28;20061;-75
2023/08/18 03:46:26;;;;;;;8.55;5.15;;;21.20;99.90;;;;;;5042036;28;20103;-78
2023/08/18 03:48:52;;;;;;;7.70;4.50;;;21.20;99.90;;;;;;5049623;28;20048;-76
2023/08/18 03:51:19;;;;;;;10.73;4.68;;;21.10;99.90;;;;;;5048854;28;20551;-79
2023/08/18 03:53:46;;;;;;;9.10;4.43;;;21.10;99.90;;;;;;5023254;28;20037;-78
2023/08/18 03:56:14;;;;;;;9.13;3.85;;;21.10;99.90;;;;;;5038750;28;20049;-76
2023/08/18 03:58:41;;;;;;;6.53;4.25;;;21.10;99.90;;;;;;5042926;28;20049;-77
2023/08/18 04:01:08;;;;;;;6.45;4.25;;;21.10;99.90;;;;;;5040638;28;20053;-79
2023/08/18 04:03:42;;;;;;;7.95;4.63;;;21.00;99.90;;;;;;5047227;28;20045;-78
2023/08/18 04:06:12;;;;;;;5.38;3.88;;;21.00;99.90;;;;;;5048190;28;20050;-78
2023/08/18 04:08:43;;;;;;;6.75;4.38;;;21.00;99.90;;;;;;5042897;28;20045;-75
2023/08/18 04:11:11;;;;;;;6.97;4.70;;;21.00;99.90;;;;;;5029617;28;20053;-77
2023/08/18 04:13:38;;;;;;;7.05;5.20;;;21.00;99.90;;;;;;5048072;28;20471;-78
2023/08/18 04:16:05;;;;;;;6.45;4.03;;;21.00;99.90;;;;;;5039875;28;20053;-77
2023/08/18 04:18:32;;;;;;;6.65;4.07;;;21.00;99.90;;;;;;5048992;28;20055;-76
2023/08/18 04:20:59;;;;;;;8.93;4.90;;;21.00;99.90;;;;;;5047543;28;20065;-77
2023/08/18 04:23:25;;;;;;;10.23;4.82;;;20.90;99.90;;;;;;5042049;28;20095;-77
2023/08/18 04:25:52;;;;;;;12.20;4.70;;;20.90;99.90;;;;;;5046243;28;20115;-77
2023/08/18 04:28:19;;;;;;;6.07;4.60;;;20.90;99.90;;;;;;5049145;28;20045;-77
2023/08/18 04:30:46;;;;;;;10.80;3.75;;;20.90;99.90;;;;;;5038895;28;20096;-78
2023/08/18 04:33:13;;;;;;;8.68;4.40;;;20.80;99.90;;;;;;5049189;28;20057;-77
2023/08/18 04:35:40;;;;;;;7.75;4.60;;;20.80;99.90;;;;;;5051085;28;20094;-77
2023/08/18 04:38:07;;;;;;;9.55;4.20;;;20.80;99.90;;;;;;5042021;28;20057;-77
2023/08/18 04:40:34;;;;;;;9.30;4.20;;;20.80;99.90;;;;;;5042249;28;20060;-77
2023/08/18 04:43:01;;;;;;;9.52;5.10;;;20.90;99.90;;;;;;5050055;28;20404;-75
2023/08/18 04:45:27;;;;;;;6.53;4.00;;;20.90;99.90;;;;;;5039996;28;20045;-78
2023/08/18 04:47:54;;;;;;;9.23;4.97;;;20.90;99.90;;;;;;5046795;28;20090;-77
2023/08/18 04:50:25;;;;;;;13.30;5.25;;;20.90;99.90;;;;;;5046121;28;20452;-75
2023/08/18 04:52:52;;;;;;;7.00;4.75;;;21.00;99.90;;;;;;5039917;28;20470;-77
2023/08/18 04:55:18;;;;;;;9.40;4.53;;;20.90;99.90;;;;;;5043597;28;20041;-75
2023/08/18 04:57:45;;;;;;;7.43;4.43;;;21.00;99.90;;;;;;5049757;28;20102;-77
2023/08/18 05:00:12;;;;;;;12.18;5.65;;;21.00;99.90;;;;;;5041739;28;20084;-79
2023/08/18 05:02:39;;;;;;;9.40;5.13;;;21.00;99.90;;;;;;5043573;28;20049;-77
2023/08/18 05:05:06;;;;;;;7.38;5.15;;;21.10;99.90;;;;;;5048739;28;20062;-78
2023/08/18 05:07:33;;;;;;;9.25;4.55;;;21.00;99.90;;;;;;5040503;28;20076;-77
2023/08/18 05:10:00;;;;;;;6.07;4.47;;;21.10;99.90;;;;;;5042316;28;20042;-74
2023/08/18 05:12:27;;;;;;;6.53;4.55;;;21.10;99.90;;;;;;5047956;28;20088;-76
2023/08/18 05:14:54;;;;;;;7.30;5.60;;;21.10;99.90;;;;;;5041033;28;20103;-77
2023/08/18 05:17:21;;;;;;;8.05;5.30;;;21.10;99.90;;;;;;5041249;28;20451;-75
2023/08/18 05:19:48;;;;;;;6.22;4.50;;;21.10;99.90;;;;;;5047272;28;20060;-74
2023/08/18 05:22:14;;;;;;;10.88;5.50;;;21.10;99.90;;;;;;5041467;28;20569;-76
2023/08/18 05:24:41;;;;;;;6.28;4.57;;;21.10;99.90;;;;;;5040263;28;20091;-75
2023/08/18 05:27:08;;;;;;;8.13;4.70;;;21.10;99.90;;;;;;5046702;28;20095;-74
2023/08/18 05:29:34;;;;;;;7.60;4.65;;;21.10;99.90;;;;;;5042303;28;20068;-76
2023/08/18 05:32:01;;;;;;;9.98;4.63;;;21.10;99.90;;;;;;5043523;28;20048;-76
2023/08/18 05:34:28;;;;;;;11.90;5.28;;;21.10;99.90;;;;;;5037896;28;20076;-78
2023/08/18 05:36:54;;;;;;;10.30;6.43;;;21.10;99.90;;;;;;5033742;28;20077;-78
2023/08/18 05:39:21;;;;;;;7.85;5.00;;;21.10;99.90;;;;;;5037420;28;20053;-77
2023/08/18 05:41:48;;;;;;;8.70;4.47;;;21.10;99.90;;;;;;5044922;28;20467;-76
2023/08/18 05:44:15;;;;;;;8.60;4.93;;;21.20;99.90;;;;;;5044404;28;20683;-76
2023/08/18 05:46:41;;;;;;;9.90;4.80;;;21.20;99.90;;;;;;5039721;28;20045;-77
2023/08/18 05:49:10;;;;;;;8.52;4.45;;;21.20;99.90;;;;;;5043293;28;20049;-76
2023/08/18 05:51:37;;;;;;;8.55;4.57;;;21.20;99.90;;;;;;5045879;28;20048;-76
2023/08/18 05:54:04;;;;;;;10.60;4.40;;;21.30;99.90;;;;;;5034591;28;20697;-76
2023/08/18 05:56:31;;;;;;;7.38;4.20;;;21.30;99.90;;;;;;5025845;28;20106;-75
2023/08/18 05:58:59;;;;;;;9.40;4.50;;;21.40;99.90;;;;;;5049321;28;20053;-75
2023/08/18 06:01:26;;;;;;;7.20;4.65;;;21.40;99.90;;;;;;5040013;28;20045;-76
2023/08/18 06:03:52;;;;;;;7.75;4.57;;;21.50;99.90;;;;;;5025653;28;20050;-76
2023/08/18 06:06:19;;;;;;;9.23;4.53;;;21.50;99.90;;;;;;5048165;28;20142;-76
2023/08/18 06:08:46;;;;;;;8.45;5.20;;;21.50;99.90;;;;;;5036458;28;20037;-76
2023/08/18 06:11:15;;;;;;;8.50;4.20;;;21.60;99.90;;;;;;5023745;28;20097;-76
2023/08/18 06:13:41;;;;;;;6.47;4.22;;;21.60;99.90;;;;;;5049340;28;20114;-76
2023/08/18 06:16:08;;;;;;;6.05;4.32;;;21.70;99.90;;;;;;5040869;28;20102;-76
2023/08/18 06:18:35;;;;;;;10.93;4.90;;;21.70;99.90;;;;;;5040333;28;20410;-76
2023/08/18 06:21:01;;;;;;;7.40;4.55;;;21.70;99.90;;;;;;5048225;28;20110;-76
2023/08/18 06:23:28;;;;;;;9.90;4.38;;;21.80;99.90;;;;;;5035580;28;20042;-75
2023/08/18 06:25:57;;;;;;;10.13;4.40;;;21.80;99.90;;;;;;5042721;28;20095;-76
2023/08/18 06:28:25;;;;;;;7.88;5.07;;;21.90;99.90;;;;;;5046971;28;20094;-76
2023/08/18 06:30:52;;;;;;;13.45;5.50;;;21.90;99.90;;;;;;5035347;28;20536;-75
2023/08/18 06:33:19;;;;;;;8.55;4.57;;;22.00;99.90;;;;;;5041679;28;20090;-76
2023/08/18 06:35:49;;;;;;;8.43;4.85;;;22.00;99.90;;;;;;5046987;28;20045;-76
2023/08/18 06:38:15;;;;;;;8.40;4.22;;;22.00;99.90;;;;;;5038511;28;20468;-76
2023/08/18 06:40:45;;;;;;;11.05;5.20;;;22.10;99.90;;;;;;5041375;28;20405;-76
2023/08/18 06:43:12;;;;;;;9.02;4.82;;;22.10;99.90;;;;;;5047800;28;20122;-75
2023/08/18 06:45:38;;;;;;;8.77;4.82;;;22.10;99.90;;;;;;5040585;28;20189;-76
2023/08/18 06:48:05;;;;;;;12.40;4.72;;;22.20;99.90;;;;;;5040321;28;20610;-76
2023/08/18 06:50:32;;;;;;;15.27;5.18;;;22.20;99.90;;;;;;5045657;28;20047;-76
2023/08/18 06:52:59;;;;;;;9.98;5.03;;;22.30;99.90;;;;;;5036788;28;20115;-76
2023/08/18 06:55:26;;;;;;;10.68;4.55;;;22.30;99.90;;;;;;5042545;28;20037;-77
2023/08/18 06:57:58;;;;;;;11.20;4.88;;;22.30;99.90;;;;;;5044299;28;20080;-77
2023/08/18 07:00:25;;;;;;;11.73;5.10;;;22.30;99.90;;;;;;5044643;28;20142;-76
2023/08/18 07:02:53;;;;;;;9.77;4.40;;;22.40;99.90;;;;;;5038899;28;20052;-77
2023/08/18 07:05:23;;;;;;;9.77;4.65;;;22.40;99.90;;;;;;5023945;28;20077;-76
2023/08/18 07:07:49;;;;;;;10.18;4.10;;;22.50;99.90;;;;;;5037234;28;20103;-76
2023/08/18 07:10:16;;;;;;;7.07;4.50;;;22.50;99.90;;;;;;5045018;28;20102;-76
2023/08/18 07:12:43;;;;;;;11.10;5.10;;;22.50;99.90;;;;;;5043966;28;20558;-77
2023/08/18 07:15:10;;;;;;;11.07;6.13;;;22.60;99.90;;;;;;5043090;28;20100;-76
2023/08/18 07:17:37;;;;;;;13.25;5.28;;;22.60;99.90;;;;;;5038489;28;20052;-76
2023/08/18 07:20:06;;;;;;;10.30;5.65;;;22.60;99.90;;;;;;5043441;28;20121;-76
2023/08/18 07:22:32;;;;;;;10.68;5.22;;;22.70;99.90;;;;;;5048568;28;20052;-76
2023/08/18 07:24:59;;;;;;;10.10;5.18;;;22.70;99.90;;;;;;5037267;28;20460;-77
2023/08/18 07:27:26;;;;;;;8.80;5.22;;;22.70;99.90;;;;;;5044446;28;20057;-76
2023/08/18 07:29:52;;;;;;;11.38;5.53;;;22.80;99.90;;;;;;5045257;28;20045;-75
2023/08/18 07:32:19;;;;;;;11.60;4.72;;;22.80;99.90;;;;;;5037628;28;20501;-76
2023/08/18 07:34:46;;;;;;;12.00;6.00;;;22.80;99.90;;;;;;5041960;28;20126;-75
2023/08/18 07:37:13;;;;;;;13.57;6.20;;;22.90;99.90;;;;;;5043282;28;20072;-77
2023/08/18 07:39:40;;;;;;;9.73;5.60;;;22.90;99.90;;;;;;5042004;28;20045;-76
2023/08/18 07:42:08;;;;;;;9.60;5.43;;;22.90;99.90;;;;;;5043098;28;20106;-76
2023/08/18 07:44:35;;;;;;;11.70;6.35;;;23.00;99.90;;;;;;5042408;28;20049;-76
2023/08/18 07:47:02;;;;;;;10.57;5.55;;;23.00;99.90;;;;;;5035725;28;20183;-75
2023/08/18 07:49:29;;;;;;;12.57;5.97;;;23.00;99.90;;;;;;5041384;28;20385;-77
2023/08/18 07:51:56;;;;;;;12.32;5.90;;;23.10;99.90;;;;;;5035647;28;20049;-77
2023/08/18 07:54:23;;;;;;;9.77;5.78;;;23.10;99.90;;;;;;5026435;28;20072;-78
2023/08/18 07:56:50;;;;;;;12.68;6.05;;;23.10;99.90;;;;;;5027542;28;20038;-77
2023/08/18 07:59:17;;;;;;;12.55;6.90;;;23.20;99.90;;;;;;5035871;28;20045;-77
2023/08/18 08:01:43;;;;;;;15.82;7.60;;;23.20;99.90;;;;;;5025917;28;20489;-77
2023/08/18 08:04:10;;;;;;;12.82;7.97;;;23.20;99.90;;;;;;5034932;28;20490;-77
2023/08/18 08:06:37;;;;;;;9.98;6.80;;;23.30;99.90;;;;;;5036953;28;20045;-77
2023/08/18 08:09:04;;;;;;;10.02;7.28;;;23.30;99.90;;;;;;5035797;28;20053;-77
2023/08/18 08:11:30;;;;;;;17.15;7.18;;;23.30;99.90;;;;;;5033548;28;20049;-77
2023/08/18 08:13:57;;;;;;;11.25;8.48;;;23.40;99.90;;;;;;5046648;28;20056;-77
2023/08/18 08:16:24;;;;;;;11.35;9.32;;;23.40;99.90;;;;;;5035386;28;20575;-78
2023/08/18 08:18:51;;;;;;;11.45;7.95;;;23.50;99.90;;;;;;5026026;28;20128;-78
2023/08/18 08:21:18;;;;;;;14.63;9.27;;;23.50;99.90;;;;;;5038586;28;20501;-77
2023/08/18 08:23:45;;;;;;;13.48;8.40;;;23.50;99.90;;;;;;5032832;28;20049;-78
2023/08/18 08:26:14;;;;;;;13.35;8.02;;;23.60;99.90;;;;;;5032312;28;20049;-77
2023/08/18 08:28:41;;;;;;;17.02;7.82;;;23.60;99.90;;;;;;5039897;28;20041;-78
2023/08/18 08:31:08;;;;;;;17.20;8.43;;;23.60;99.90;;;;;;5022169;28;20045;-78
2023/08/18 08:33:36;;;;;;;15.70;8.30;;;23.70;99.90;;;;;;5042720;28;20037;-78
2023/08/18 08:36:03;;;;;;;14.27;8.75;;;23.70;99.90;;;;;;5031772;28;20049;-78
2023/08/18 08:38:30;;;;;;;13.77;9.05;;;23.80;99.90;;;;;;5043798;28;20052;-78
2023/08/18 08:40:59;;;;;;;10.73;8.00;;;23.80;99.90;;;;;;5033900;28;20492;-78
2023/08/18 08:43:26;;;;;;;13.15;8.40;;;23.90;99.90;;;;;;5054528;28;20072;-78
2023/08/18 08:45:54;;;;;;;22.83;9.65;;;23.90;99.90;;;;;;5032669;28;20073;-78
2023/08/18 08:48:23;;;;;;;11.90;7.97;;;24.00;99.90;;;;;;5026833;28;20046;-77
2023/08/18 08:50:55;;;;;;;12.13;7.07;;;24.00;99.90;;;;;;5042320;28;20095;-78
2023/08/18 08:53:37;;;;;;;8.98;7.22;;;24.10;99.90;;;;;;5039634;28;20052;-78
2023/08/18 08:56:07;;;;;;;13.48;8.00;;;24.10;99.90;;;;;;5028043;28;20049;-78
2023/08/18 08:58:36;;;;;;;11.73;6.93;;;24.20;99.90;;;;;;5050777;28;20055;-78
2023/08/18 09:01:06;;;;;;;10.57;7.05;;;24.20;99.90;;;;;;5036985;28;20447;-80
2023/08/18 09:03:34;;;;;;;11.43;7.35;;;24.30;99.90;;;;;;5026789;28;20053;-79
2023/08/18 09:06:01;;;;;;;9.88;7.00;;;24.30;99.90;;;;;;5035467;28;20140;-81
2023/08/18 09:08:27;;;;;;;12.70;8.00;;;24.40;99.90;;;;;;5033286;28;20436;-78
2023/08/18 09:10:55;;;;;;;11.23;7.82;;;24.40;99.90;;;;;;5034775;28;20053;-79
2023/08/18 09:13:23;;;;;;;11.05;7.32;;;24.50;99.90;;;;;;5028706;28;20037;-79
2023/08/18 09:15:50;;;;;;;13.60;7.32;;;24.50;99.90;;;;;;5034715;23;20066;-82
2023/08/18 09:18:18;;;;;;;14.15;7.57;;;24.50;99.90;;;;;;5001098;28;20090;-82
2023/08/18 09:20:45;;;;;;;14.23;7.25;;;24.60;99.90;;;;;;4997187;28;20050;-81
2023/08/18 09:23:12;;;;;;;14.95;7.18;;;24.70;99.90;;;;;;4996517;28;20128;-81
2023/08/18 09:25:39;;;;;;;11.52;6.88;;;24.70;99.90;;;;;;4993350;28;20046;-82
2023/08/18 09:28:06;;;;;;;10.10;6.78;;;24.80;99.90;;;;;;4994480;28;20042;-82
2023/08/18 09:30:41;;;;;;;11.38;6.72;;;24.80;99.90;;;;;;4993475;28;20053;-81
2023/08/18 09:33:08;;;;;;;13.40;6.40;;;24.80;99.90;;;;;;4998634;28;20057;-82
2023/08/18 09:35:35;;;;;;;10.10;6.28;;;24.90;99.90;;;;;;4996530;28;20050;-82
2023/08/18 09:38:02;;;;;;;8.70;6.57;;;25.00;99.90;;;;;;4990634;28;20050;-81
2023/08/18 09:40:29;;;;;;;10.77;5.82;;;25.00;99.90;;;;;;4990064;28;20050;-81
2023/08/18 09:42:56;;;;;;;10.30;6.05;;;25.00;99.90;;;;;;4996407;28;20055;-81
2023/08/18 09:45:26;;;;;;;10.65;6.25;;;25.10;99.90;;;;;;5000938;28;20062;-81
2023/08/18 09:47:57;;;;;;;11.03;7.03;;;25.20;99.90;;;;;;4994674;28;20046;-81
2023/08/18 09:50:25;;;;;;;10.32;6.07;;;25.30;99.90;;;;;;5000508;28;20356;-81
2023/08/18 09:52:54;;;;;;;9.73;5.97;;;25.30;99.90;;;;;;4997784;28;20047;-81
2023/08/18 09:55:46;;;;;;;9.38;5.90;;;25.30;99.90;;;;;;4995484;28;20122;-81
2023/08/18 09:58:34;;;;;;;9.63;6.05;;;25.40;99.90;;;;;;4999705;28;20050;-82
2023/08/18 10:01:04;;;;;;;9.30;6.32;;;25.50;99.90;;;;;;5005558;28;20081;-82
2023/08/18 10:03:33;;;;;;;10.20;6.10;;;25.60;99.90;;;;;;5018756;28;20051;-82
2023/08/18 10:06:01;;;;;;;10.30;6.05;;;25.70;99.90;;;;;;5002383;28;20046;-82
2023/08/18 10:08:28;;;;;;;8.80;5.80;;;25.70;99.90;;;;;;4996599;28;20109;-82
2023/08/18 10:10:54;;;;;;;11.73;5.93;;;25.70;99.90;;;;;;4997301;28;20664;-81
2023/08/18 10:13:22;;;;;;;10.57;5.63;;;25.80;99.90;;;;;;5002652;28;20074;-82
2023/08/18 10:15:49;;;;;;;11.80;5.85;;;25.80;99.90;;;;;;5012708;28;20038;-81
2023/08/18 10:18:17;;;;;;;10.05;5.93;;;25.90;99.90;;;;;;5001970;28;20038;-81
2023/08/18 10:20:49;;;;;;;7.20;4.53;;;25.90;99.90;;;;;;5004441;28;20045;-82
2023/08/18 10:23:17;;;;;;;12.00;6.25;;;26.00;99.90;;;;;;4998715;28;20051;-82
2023/08/18 10:25:45;;;;;;;9.35;5.10;;;26.00;99.90;;;;;;4996500;28;20053;-81
2023/08/18 10:28:19;;;;;;;7.25;5.03;;;26.10;99.90;;;;;;4992871;28;20417;-82
2023/08/18 10:30:51;;;;;;;8.05;4.35;;;26.20;99.90;;;;;;5003802;28;20044;-82
2023/08/18 10:33:38;;;;;;;8.02;4.78;;;26.20;99.90;;;;;;4995627;28;20050;-82
2023/08/18 10:36:06;;;;;;;8.18;4.45;;;26.30;99.90;;;;;;4994904;28;20047;-81
2023/08/18 10:38:35;;;;;;;5.90;4.53;;;26.40;99.90;;;;;;4993006;28;20057;-82
2023/08/18 10:41:03;;;;;;;7.80;4.10;;;26.50;99.90;;;;;;4990421;28;20050;-82
2023/08/18 10:43:41;;;;;;;6.38;4.05;;;26.60;99.90;;;;;;5012735;28;20137;-82
2023/08/18 10:46:13;;;;;;;9.90;3.95;;;26.70;99.90;;;;;;5000023;28;20549;-82
2023/08/18 10:48:40;;;;;;;10.80;4.18;;;26.80;99.90;;;;;;4994264;28;20097;-82
2023/08/18 10:51:07;;;;;;;10.18;3.88;;;26.80;99.90;;;;;;5012313;28;20054;-82
2023/08/18 10:53:37;;;;;;;5.72;3.85;;;26.90;99.90;;;;;;4991561;28;20046;-83
2023/08/18 10:56:04;;;;;;;5.63;4.10;;;26.90;99.90;;;;;;4997695;28;20051;-82
2023/08/18 10:58:32;;;;;;;5.50;3.83;;;27.00;99.90;;;;;;5002960;28;20054;-82
2023/08/18 11:01:00;;;;;;;7.95;3.55;;;27.00;99.90;;;;;;5010238;28;20054;-82
2023/08/18 11:03:27;;;;;;;5.93;3.50;;;27.00;99.90;;;;;;4998436;28;20054;-83
2023/08/18 11:05:54;;;;;;;6.82;2.92;;;27.10;99.90;;;;;;5003736;28;20505;-81
2023/08/18 11:08:21;;;;;;;5.47;2.63;;;27.10;99.90;;;;;;5011366;28;20046;-81
2023/08/18 11:10:48;;;;;;;6.28;2.33;;;27.10;99.90;;;;;;5002014;28;20041;-82
2023/08/18 11:13:23;;;;;;;3.70;1.98;;;27.20;99.90;;;;;;5004180;28;20074;-82
2023/08/18 11:15:51;;;;;;;2.75;1.67;;;27.20;99.90;;;;;;5005311;28;20053;-81
2023/08/18 11:18:21;;;;;;;4.57;1.65;;;27.30;99.90;;;;;;4998526;28;20064;-81
2023/08/18 11:20:49;;;;;;;4.50;1.88;;;27.40;99.90;;;;;;5002735;28;20073;-82
2023/08/18 11:23:16;;;;;;;7.82;1.73;;;27.40;99.90;;;;;;5000551;28;20050;-81
2023/08/18 11:25:44;;;;;;;2.28;1.45;;;27.40;99.90;;;;;;5002077;28;20047;-81
2023/08/18 11:28:12;;;;;;;5.40;1.70;;;27.60;99.90;;;;;;5003079;28;20075;-82
2023/08/18 11:30:39;;;;;;;4.57;2.58;;;27.60;99.90;;;;;;5005189;28;20074;-81
2023/08/18 11:33:05;;;;;;;3.15;1.75;;;27.70;99.90;;;;;;4993384;28;20051;-82
2023/08/18 11:35:33;;;;;;;3.80;1.67;;;27.70;99.90;;;;;;4995676;28;20093;-82
2023/08/18 11:38:00;;;;;;;4.43;1.75;;;27.70;99.90;;;;;;4990191;28;20050;-82
2023/08/18 11:40:26;;;;;;;5.13;1.65;;;27.80;99.90;;;;;;4991671;28;20078;-82
2023/08/18 11:42:54;;;;;;;2.47;1.65;;;27.90;99.90;;;;;;5002832;28;20105;-82
2023/08/18 11:45:23;;;;;;;3.15;1.60;;;27.90;99.90;;;;;;4997310;28;20046;-82
2023/08/18 11:48:04;;;;;;;6.18;1.80;;;27.90;99.90;;;;;;4996584;28;20050;-82
2023/08/18 11:50:39;;;;;;;4.05;1.90;;;28.10;99.90;;;;;;4995707;28;20077;-82
2023/08/18 11:53:07;;;;;;;6.95;1.50;;;28.10;99.90;;;;;;4992742;28;20533;-82
2023/08/18 11:55:44;;;;;;;3.47;1.85;;;28.20;99.90;;;;;;5005255;28;20058;-82
2023/08/18 11:58:14;;;;;;;4.03;1.77;;;28.30;99.90;;;;;;5002215;28;20082;-82
2023/08/18 12:00:44;;;;;;;4.30;2.20;;;28.30;99.90;;;;;;5008049;28;20083;-82
2023/08/18 12:03:23;;;;;;;1.98;1.58;;;28.40;99.90;;;;;;5008514;28;20055;-82
2023/08/18 12:05:53;;;;;;;6.07;2.13;;;28.50;99.90;;;;;;5001316;28;20109;-82
2023/08/18 12:08:20;;;;;;;2.90;1.63;;;28.50;99.90;;;;;;4995344;28;20042;-82
2023/08/18 12:10:49;;;;;;;3.17;1.75;;;28.50;99.90;;;;;;5004897;28;20093;-82
2023/08/18 12:13:17;;;;;;;;;;;28.60;99.90;;;;;;5000988;28;20626;-82
2023/08/18 12:15:44;;;;;;;5.10;2.15;;;28.70;99.90;;;;;;5001031;28;20385;-81
2023/08/18 12:18:10;;;;;;;3.22;1.60;;;28.80;99.90;;;;;;4991172;28;20078;-82
2023/08/18 12:20:37;;;;;;;1.83;1.27;;;28.80;99.90;;;;;;4999233;28;20054;-82
2023/08/18 12:23:04;;;;;;;3.83;1.73;;;29.00;99.90;;;;;;5009136;28;20133;-83
2023/08/18 12:25:31;;;;;;;6.13;1.65;;;29.00;99.90;;;;;;5002506;28;20589;-82
2023/08/18 12:27:58;;;;;;;5.18;1.45;;;29.10;99.90;;;;;;4998121;28;20109;-82
2023/08/18 12:30:25;;;;;;;3.58;1.60;;;29.10;99.90;;;;;;5014058;28;20413;-82
2023/08/18 12:32:52;;;;;;;4.43;1.50;;;29.20;99.90;;;;;;5004033;28;20047;-83
2023/08/18 12:35:20;;;;;;;3.28;1.63;;;29.20;99.90;;;;;;4995853;28;20051;-81
2023/08/18 12:37:47;;;;;;;6.55;1.60;;;29.30;99.90;;;;;;4998932;28;20050;-82
2023/08/18 12:40:14;;;;;;;4.65;1.50;;;29.30;99.90;;;;;;5001688;28;20051;-82
2023/08/18 12:42:41;;;;;;;2.40;1.40;;;29.30;99.90;;;;;;4997421;28;20417;-83
2023/08/18 12:45:09;;;;;;;4.68;1.50;;;29.30;99.90;;;;;;4997230;28;20105;-82